sensor_id;sensor_type;location;lat;lon;timestamp;temperature;humidity
32348;DHT22;18821;44.800;10.326;2023-05-28T00:00:06;20.90;1.00
32348;DHT22;18821;44.800;10.326;2023-05-28T00:02:38;20.90;1.00
32348;DHT22;18821;44.800;10.326;2023-05-28T00:05:05;20.90;1.00
32348;DHT22;18821;44.800;10.326;2023-05-28T00:07:32;20.80;1.00
32348;DHT22;18821;44.800;10.326;2023-05-28T00:09:58;20.80;1.00
32348;DHT22;18821;44.800;10.326;2023-05-28T00:12:24;20.70;1.00
32348;DHT22;18821;44.800;10.326;2023-05-28T00:14:50;20.70;1.00
32348;DHT22;18821;44.800;10.326;2023-05-28T00:17:17;20.70;1.00
32348;DHT22;18821;44.800;10.326;2023-05-28T00:19:44;20.70;1.00
32348;DHT22;18821;44.800;10.326;2023-05-28T00:22:10;20.70;1.00
32348;DHT22;18821;44.800;10.326;2023-05-28T00:24:36;20.60;1.00
32348;DHT22;18821;44.800;10.326;2023-05-28T00:27:02;20.70;1.00
32348;DHT22;18821;44.800;10.326;2023-05-28T00:29:29;20.60;1.00
32348;DHT22;18821;44.800;10.326;2023-05-28T00:31:55;20.60;1.00
32348;DHT22;18821;44.800;10.326;2023-05-28T00:34:23;20.60;1.00
32348;DHT22;18821;44.800;10.326;2023-05-28T00:36:48;20.60;1.00
32348;DHT22;18821;44.800;10.326;2023-05-28T00:39:15;20.60;1.00
32348;DHT22;18821;44.800;10.326;2023-05-28T00:41:41;20.60;1.00
32348;DHT22;18821;44.800;10.326;2023-05-28T00:44:07;20.60;1.00
32348;DHT22;18821;44.800;10.326;2023-05-28T00:46:36;20.60;1.00
32348;DHT22;18821;44.800;10.326;2023-05-28T00:49:02;20.60;1.00
32348;DHT22;18821;44.800;10.326;2023-05-28T00:51:28;20.60;1.00
32348;DHT22;18821;44.800;10.326;2023-05-28T00:53:55;20.60;1.00
32348;DHT22;18821;44.800;10.326;2023-05-28T00:56:21;20.60;1.00
32348;DHT22;18821;44.800;10.326;2023-05-28T00:58:50;20.60;1.00
32348;DHT22;18821;44.800;10.326;2023-05-28T01:01:17;20.60;1.00
32348;DHT22;18821;44.800;10.326;2023-05-28T01:03:43;20.60;1.00
32348;DHT22;18821;44.800;10.326;2023-05-28T01:06:12;20.60;1.00
32348;DHT22;18821;44.800;10.326;2023-05-28T01:08:40;20.60;1.00
32348;DHT22;18821;44.800;10.326;2023-05-28T01:11:17;20.50;1.00
32348;DHT22;18821;44.800;10.326;2023-05-28T01:13:45;20.50;1.00
32348;DHT22;18821;44.800;10.326;2023-05-28T01:16:12;20.40;1.00
32348;DHT22;18821;44.800;10.326;2023-05-28T01:18:39;20.40;1.00
32348;DHT22;18821;44.800;10.326;2023-05-28T01:21:06;20.30;1.00
32348;DHT22;18821;44.800;10.326;2023-05-28T01:23:47;20.30;1.00
32348;DHT22;18821;44.800;10.326;2023-05-28T01:26:14;20.30;1.00
32348;DHT22;18821;44.800;10.326;2023-05-28T01:28:44;20.20;1.00
32348;DHT22;18821;44.800;10.326;2023-05-28T01:31:12;20.10;1.00
32348;DHT22;18821;44.800;10.326;2023-05-28T01:33:39;20.10;1.00
32348;DHT22;18821;44.800;10.326;2023-05-28T01:36:16;20.10;1.00
32348;DHT22;18821;44.800;10.326;2023-05-28T01:38:43;20.00;1.00
32348;DHT22;18821;44.800;10.326;2023-05-28T01:41:14;19.90;1.00
32348;DHT22;18821;44.800;10.326;2023-05-28T01:43:42;19.90;1.00
32348;DHT22;18821;44.800;10.326;2023-05-28T01:46:09;19.90;1.00
32348;DHT22;18821;44.800;10.326;2023-05-28T01:48:36;19.80;1.00
32348;DHT22;18821;44.800;10.326;2023-05-28T01:51:03;19.80;1.00
32348;DHT22;18821;44.800;10.326;2023-05-28T01:53:29;19.70;1.00
32348;DHT22;18821;44.800;10.326;2023-05-28T01:55:55;19.60;1.00
32348;DHT22;18821;44.800;10.326;2023-05-28T01:58:23;19.60;1.00
32348;DHT22;18821;44.800;10.326;2023-05-28T02:01:09;19.60;1.00
32348;DHT22;18821;44.800;10.326;2023-05-28T02:03:36;19.60;1.00
32348;DHT22;18821;44.800;10.326;2023-05-28T02:06:02;19.60;1.00
32348;DHT22;18821;44.800;10.326;2023-05-28T02:08:29;19.60;1.00
32348;DHT22;18821;44.800;10.326;2023-05-28T02:10:56;19.60;1.00
32348;DHT22;18821;44.800;10.326;2023-05-28T02:13:22;19.60;1.00
32348;DHT22;18821;44.800;10.326;2023-05-28T02:15:49;19.60;1.00
32348;DHT22;18821;44.800;10.326;2023-05-28T02:18:15;19.60;1.00
32348;DHT22;18821;44.800;10.326;2023-05-28T02:20:44;19.60;1.00
32348;DHT22;18821;44.800;10.326;2023-05-28T02:23:10;19.60;1.00
32348;DHT22;18821;44.800;10.326;2023-05-28T02:25:36;19.50;1.00
32348;DHT22;18821;44.800;10.326;2023-05-28T02:28:03;19.50;1.00
32348;DHT22;18821;44.800;10.326;2023-05-28T02:30:29;19.40;1.00
32348;DHT22;18821;44.800;10.326;2023-05-28T02:32:55;19.40;1.00
32348;DHT22;18821;44.800;10.326;2023-05-28T02:35:30;19.30;1.00
32348;DHT22;18821;44.800;10.326;2023-05-28T02:37:56;19.30;1.00
32348;DHT22;18821;44.800;10.326;2023-05-28T02:40:22;19.30;1.00
32348;DHT22;18821;44.800;10.326;2023-05-28T02:43:00;19.20;1.00
32348;DHT22;18821;44.800;10.326;2023-05-28T02:45:43;19.20;1.00
32348;DHT22;18821;44.800;10.326;2023-05-28T02:48:09;19.10;1.00
32348;DHT22;18821;44.800;10.326;2023-05-28T02:50:35;19.10;1.00
32348;DHT22;18821;44.800;10.326;2023-05-28T02:55:59;19.10;1.00
32348;DHT22;18821;44.800;10.326;2023-05-28T02:58:26;19.10;1.00
32348;DHT22;18821;44.800;10.326;2023-05-28T03:00:52;19.10;1.00
32348;DHT22;18821;44.800;10.326;2023-05-28T03:03:17;19.00;1.00
32348;DHT22;18821;44.800;10.326;2023-05-28T03:06:06;19.00;1.00
32348;DHT22;18821;44.800;10.326;2023-05-28T03:08:43;18.90;1.00
32348;DHT22;18821;44.800;10.326;2023-05-28T03:11:09;18.90;1.00
32348;DHT22;18821;44.800;10.326;2023-05-28T03:13:35;19.10;1.00
32348;DHT22;18821;44.800;10.326;2023-05-28T03:16:03;19.10;1.00
32348;DHT22;18821;44.800;10.326;2023-05-28T03:18:50;19.10;1.00
32348;DHT22;18821;44.800;10.326;2023-05-28T03:21:17;19.20;1.00
32348;DHT22;18821;44.800;10.326;2023-05-28T03:23:43;19.20;1.00
32348;DHT22;18821;44.800;10.326;2023-05-28T03:26:37;19.20;1.00
32348;DHT22;18821;44.800;10.326;2023-05-28T03:29:04;19.30;1.00
32348;DHT22;18821;44.800;10.326;2023-05-28T03:32:14;19.20;1.00
32348;DHT22;18821;44.800;10.326;2023-05-28T03:34:40;19.20;1.00
32348;DHT22;18821;44.800;10.326;2023-05-28T03:37:06;19.20;1.00
32348;DHT22;18821;44.800;10.326;2023-05-28T03:39:51;19.10;1.00
32348;DHT22;18821;44.800;10.326;2023-05-28T03:42:21;19.00;1.00
32348;DHT22;18821;44.800;10.326;2023-05-28T03:44:51;18.90;1.00
32348;DHT22;18821;44.800;10.326;2023-05-28T03:47:17;18.90;1.00
32348;DHT22;18821;44.800;10.326;2023-05-28T03:49:43;18.80;1.00
32348;DHT22;18821;44.800;10.326;2023-05-28T03:52:37;18.80;1.00
32348;DHT22;18821;44.800;10.326;2023-05-28T03:55:06;18.70;1.00
32348;DHT22;18821;44.800;10.326;2023-05-28T03:57:33;18.60;2.70
32348;DHT22;18821;44.800;10.326;2023-05-28T04:00:00;18.60;3.40
32348;DHT22;18821;44.800;10.326;2023-05-28T04:02:26;18.60;3.60
32348;DHT22;18821;44.800;10.326;2023-05-28T04:04:52;18.70;1.50
32348;DHT22;18821;44.800;10.326;2023-05-28T04:07:18;18.70;1.00
32348;DHT22;18821;44.800;10.326;2023-05-28T04:09:44;18.70;1.90
32348;DHT22;18821;44.800;10.326;2023-05-28T04:12:10;18.80;1.30
32348;DHT22;18821;44.800;10.326;2023-05-28T04:14:38;18.80;1.00
32348;DHT22;18821;44.800;10.326;2023-05-28T04:17:06;18.80;1.00
32348;DHT22;18821;44.800;10.326;2023-05-28T04:19:32;18.90;1.00
32348;DHT22;18821;44.800;10.326;2023-05-28T04:21:58;18.90;1.00
32348;DHT22;18821;44.800;10.326;2023-05-28T04:24:24;19.00;1.00
32348;DHT22;18821;44.800;10.326;2023-05-28T04:26:50;18.90;1.00
32348;DHT22;18821;44.800;10.326;2023-05-28T04:29:17;18.70;1.00
32348;DHT22;18821;44.800;10.326;2023-05-28T04:31:42;18.70;2.90
32348;DHT22;18821;44.800;10.326;2023-05-28T04:34:10;18.70;2.30
32348;DHT22;18821;44.800;10.326;2023-05-28T04:36:36;18.80;2.60
32348;DHT22;18821;44.800;10.326;2023-05-28T04:39:03;18.80;4.70
32348;DHT22;18821;44.800;10.326;2023-05-28T04:41:30;18.90;3.20
32348;DHT22;18821;44.800;10.326;2023-05-28T04:43:57;18.90;1.40
32348;DHT22;18821;44.800;10.326;2023-05-28T04:46:23;19.00;3.60
32348;DHT22;18821;44.800;10.326;2023-05-28T04:48:51;19.00;1.00
32348;DHT22;18821;44.800;10.326;2023-05-28T04:51:18;19.10;1.00
32348;DHT22;18821;44.800;10.326;2023-05-28T04:53:47;19.10;1.00
32348;DHT22;18821;44.800;10.326;2023-05-28T04:56:13;19.10;1.00
32348;DHT22;18821;44.800;10.326;2023-05-28T04:58:40;19.20;1.00
32348;DHT22;18821;44.800;10.326;2023-05-28T05:01:07;19.10;1.00
32348;DHT22;18821;44.800;10.326;2023-05-28T05:03:35;19.20;4.30
32348;DHT22;18821;44.800;10.326;2023-05-28T05:06:03;19.30;1.30
32348;DHT22;18821;44.800;10.326;2023-05-28T05:08:30;19.30;1.00
32348;DHT22;18821;44.800;10.326;2023-05-28T05:10:56;19.30;1.00
32348;DHT22;18821;44.800;10.326;2023-05-28T05:13:22;19.20;1.00
32348;DHT22;18821;44.800;10.326;2023-05-28T05:15:49;19.30;1.00
32348;DHT22;18821;44.800;10.326;2023-05-28T05:18:19;19.40;1.00
32348;DHT22;18821;44.800;10.326;2023-05-28T05:20:45;19.40;1.00
32348;DHT22;18821;44.800;10.326;2023-05-28T05:23:35;19.60;1.00
32348;DHT22;18821;44.800;10.326;2023-05-28T05:26:12;19.80;1.00
32348;DHT22;18821;44.800;10.326;2023-05-28T05:28:39;19.90;1.00
32348;DHT22;18821;44.800;10.326;2023-05-28T05:31:17;20.00;1.00
32348;DHT22;18821;44.800;10.326;2023-05-28T05:33:42;20.10;1.00
32348;DHT22;18821;44.800;10.326;2023-05-28T05:36:15;20.30;1.00
32348;DHT22;18821;44.800;10.326;2023-05-28T05:39:25;20.60;1.00
32348;DHT22;18821;44.800;10.326;2023-05-28T05:42:07;20.80;1.00
32348;DHT22;18821;44.800;10.326;2023-05-28T05:44:38;21.00;1.00
32348;DHT22;18821;44.800;10.326;2023-05-28T05:47:05;21.20;1.00
32348;DHT22;18821;44.800;10.326;2023-05-28T05:49:31;21.20;1.00
32348;DHT22;18821;44.800;10.326;2023-05-28T05:51:57;21.10;1.00
32348;DHT22;18821;44.800;10.326;2023-05-28T05:54:27;21.20;1.00
32348;DHT22;18821;44.800;10.326;2023-05-28T05:56:53;21.20;1.00
32348;DHT22;18821;44.800;10.326;2023-05-28T05:59:20;21.20;1.00
32348;DHT22;18821;44.800;10.326;2023-05-28T06:01:47;21.30;1.00
32348;DHT22;18821;44.800;10.326;2023-05-28T06:04:14;21.30;1.00
32348;DHT22;18821;44.800;10.326;2023-05-28T06:06:49;21.40;1.00
32348;DHT22;18821;44.800;10.326;2023-05-28T06:09:34;21.80;1.00
32348;DHT22;18821;44.800;10.326;2023-05-28T06:12:16;21.90;1.00
32348;DHT22;18821;44.800;10.326;2023-05-28T06:14:42;21.80;1.00
32348;DHT22;18821;44.800;10.326;2023-05-28T06:17:08;21.70;1.00
32348;DHT22;18821;44.800;10.326;2023-05-28T06:19:35;21.80;1.00
32348;DHT22;18821;44.800;10.326;2023-05-28T06:22:02;21.80;1.00
32348;DHT22;18821;44.800;10.326;2023-05-28T06:24:31;21.90;1.00
32348;DHT22;18821;44.800;10.326;2023-05-28T06:26:57;22.00;1.00
32348;DHT22;18821;44.800;10.326;2023-05-28T06:29:24;22.30;1.00
32348;DHT22;18821;44.800;10.326;2023-05-28T06:31:50;22.30;1.00
32348;DHT22;18821;44.800;10.326;2023-05-28T06:34:16;22.30;1.00
32348;DHT22;18821;44.800;10.326;2023-05-28T06:36:42;22.40;1.00
32348;DHT22;18821;44.800;10.326;2023-05-28T06:39:09;22.70;1.00
32348;DHT22;18821;44.800;10.326;2023-05-28T06:41:36;22.70;1.00
32348;DHT22;18821;44.800;10.326;2023-05-28T06:44:03;22.60;1.00
32348;DHT22;18821;44.800;10.326;2023-05-28T06:46:34;23.20;1.00
32348;DHT22;18821;44.800;10.326;2023-05-28T06:49:01;23.70;99.90
32348;DHT22;18821;44.800;10.326;2023-05-28T06:51:26;24.20;99.90
32348;DHT22;18821;44.800;10.326;2023-05-28T06:53:52;23.80;99.90
32348;DHT22;18821;44.800;10.326;2023-05-28T06:56:24;23.60;99.90
32348;DHT22;18821;44.800;10.326;2023-05-28T06:59:08;23.40;99.90
32348;DHT22;18821;44.800;10.326;2023-05-28T07:01:54;22.90;99.90
32348;DHT22;18821;44.800;10.326;2023-05-28T07:04:40;22.90;99.90
32348;DHT22;18821;44.800;10.326;2023-05-28T07:07:13;23.20;99.90
32348;DHT22;18821;44.800;10.326;2023-05-28T07:09:39;23.70;1.00
32348;DHT22;18821;44.800;10.326;2023-05-28T07:12:05;23.90;99.90
32348;DHT22;18821;44.800;10.326;2023-05-28T07:14:34;24.20;99.90
32348;DHT22;18821;44.800;10.326;2023-05-28T07:17:01;24.10;99.90
32348;DHT22;18821;44.800;10.326;2023-05-28T07:19:27;24.20;99.90
32348;DHT22;18821;44.800;10.326;2023-05-28T07:21:53;24.30;99.90
32348;DHT22;18821;44.800;10.326;2023-05-28T07:24:20;24.30;99.90
32348;DHT22;18821;44.800;10.326;2023-05-28T07:26:46;24.20;99.90
32348;DHT22;18821;44.800;10.326;2023-05-28T07:29:13;24.10;99.90
32348;DHT22;18821;44.800;10.326;2023-05-28T07:31:41;23.90;99.90
32348;DHT22;18821;44.800;10.326;2023-05-28T07:34:09;23.70;99.90
32348;DHT22;18821;44.800;10.326;2023-05-28T07:36:36;24.10;99.90
32348;DHT22;18821;44.800;10.326;2023-05-28T07:39:03;24.20;99.90
32348;DHT22;18821;44.800;10.326;2023-05-28T07:41:30;24.20;99.90
32348;DHT22;18821;44.800;10.326;2023-05-28T07:44:10;24.10;99.90
32348;DHT22;18821;44.800;10.326;2023-05-28T07:46:37;23.80;99.90
32348;DHT22;18821;44.800;10.326;2023-05-28T07:49:14;23.40;99.90
32348;DHT22;18821;44.800;10.326;2023-05-28T07:51:44;23.40;99.90
32348;DHT22;18821;44.800;10.326;2023-05-28T07:54:15;23.90;99.90
32348;DHT22;18821;44.800;10.326;2023-05-28T07:56:41;24.20;99.90
32348;DHT22;18821;44.800;10.326;2023-05-28T07:59:11;24.50;99.90
32348;DHT22;18821;44.800;10.326;2023-05-28T08:01:38;23.90;99.90
32348;DHT22;18821;44.800;10.326;2023-05-28T08:04:05;24.10;99.90
32348;DHT22;18821;44.800;10.326;2023-05-28T08:06:35;23.90;99.90
32348;DHT22;18821;44.800;10.326;2023-05-28T08:09:04;23.80;99.90
32348;DHT22;18821;44.800;10.326;2023-05-28T08:11:29;23.70;99.90
32348;DHT22;18821;44.800;10.326;2023-05-28T08:13:55;23.30;99.90
32348;DHT22;18821;44.800;10.326;2023-05-28T08:16:22;23.60;99.90
32348;DHT22;18821;44.800;10.326;2023-05-28T08:19:15;23.80;99.90
32348;DHT22;18821;44.800;10.326;2023-05-28T08:21:43;23.70;99.90
32348;DHT22;18821;44.800;10.326;2023-05-28T08:24:09;23.80;99.90
32348;DHT22;18821;44.800;10.326;2023-05-28T08:26:55;24.30;99.90
32348;DHT22;18821;44.800;10.326;2023-05-28T08:29:23;24.40;99.90
32348;DHT22;18821;44.800;10.326;2023-05-28T08:31:57;24.50;99.90
32348;DHT22;18821;44.800;10.326;2023-05-28T08:34:30;24.00;99.90
32348;DHT22;18821;44.800;10.326;2023-05-28T08:36:56;24.10;99.90
32348;DHT22;18821;44.800;10.326;2023-05-28T08:39:28;24.00;99.90
32348;DHT22;18821;44.800;10.326;2023-05-28T08:41:56;23.60;99.90
32348;DHT22;18821;44.800;10.326;2023-05-28T08:44:22;23.70;99.90
32348;DHT22;18821;44.800;10.326;2023-05-28T08:46:49;23.20;99.90
32348;DHT22;18821;44.800;10.326;2023-05-28T08:49:38;23.60;99.90
32348;DHT22;18821;44.800;10.326;2023-05-28T08:52:08;24.10;99.90
32348;DHT22;18821;44.800;10.326;2023-05-28T08:54:38;24.10;99.90
32348;DHT22;18821;44.800;10.326;2023-05-28T08:57:05;24.20;99.90
32348;DHT22;18821;44.800;10.326;2023-05-28T08:59:38;24.30;99.90
32348;DHT22;18821;44.800;10.326;2023-05-28T09:02:04;24.00;99.90
32348;DHT22;18821;44.800;10.326;2023-05-28T09:04:31;23.70;99.90
32348;DHT22;18821;44.800;10.326;2023-05-28T09:06:57;23.90;99.90
32348;DHT22;18821;44.800;10.326;2023-05-28T09:09:40;24.10;99.90
32348;DHT22;18821;44.800;10.326;2023-05-28T09:12:13;23.90;99.90
32348;DHT22;18821;44.800;10.326;2023-05-28T09:14:50;23.70;99.90
32348;DHT22;18821;44.800;10.326;2023-05-28T09:17:16;24.30;99.90
32348;DHT22;18821;44.800;10.326;2023-05-28T09:19:50;24.70;99.90
32348;DHT22;18821;44.800;10.326;2023-05-28T09:22:18;24.40;99.90
32348;DHT22;18821;44.800;10.326;2023-05-28T09:24:54;24.60;99.90
32348;DHT22;18821;44.800;10.326;2023-05-28T09:27:39;24.50;99.90
32348;DHT22;18821;44.800;10.326;2023-05-28T09:30:08;24.70;99.90
32348;DHT22;18821;44.800;10.326;2023-05-28T09:32:35;25.10;99.90
32348;DHT22;18821;44.800;10.326;2023-05-28T09:35:05;25.30;99.90
32348;DHT22;18821;44.800;10.326;2023-05-28T09:37:33;25.00;99.90
32348;DHT22;18821;44.800;10.326;2023-05-28T09:40:00;25.00;99.90
32348;DHT22;18821;44.800;10.326;2023-05-28T09:42:32;24.80;99.90
32348;DHT22;18821;44.800;10.326;2023-05-28T09:45:30;24.70;99.90
32348;DHT22;18821;44.800;10.326;2023-05-28T09:47:55;24.80;99.90
32348;DHT22;18821;44.800;10.326;2023-05-28T09:50:21;25.20;99.90
32348;DHT22;18821;44.800;10.326;2023-05-28T09:52:47;25.60;99.90
32348;DHT22;18821;44.800;10.326;2023-05-28T09:55:16;25.90;99.90
32348;DHT22;18821;44.800;10.326;2023-05-28T09:58:10;25.60;99.90
32348;DHT22;18821;44.800;10.326;2023-05-28T10:00:40;26.00;99.90
32348;DHT22;18821;44.800;10.326;2023-05-28T10:06:03;25.50;99.90
32348;DHT22;18821;44.800;10.326;2023-05-28T10:08:33;25.70;99.90
32348;DHT22;18821;44.800;10.326;2023-05-28T10:11:07;25.70;99.90
32348;DHT22;18821;44.800;10.326;2023-05-28T10:13:35;25.80;99.90
32348;DHT22;18821;44.800;10.326;2023-05-28T10:16:01;26.20;99.90
32348;DHT22;18821;44.800;10.326;2023-05-28T10:18:27;26.60;99.90
32348;DHT22;18821;44.800;10.326;2023-05-28T10:20:54;25.90;99.90
32348;DHT22;18821;44.800;10.326;2023-05-28T10:23:20;25.80;99.90
32348;DHT22;18821;44.800;10.326;2023-05-28T10:25:47;25.70;99.90
32348;DHT22;18821;44.800;10.326;2023-05-28T10:28:14;25.50;99.90
32348;DHT22;18821;44.800;10.326;2023-05-28T10:30:40;25.20;99.90
32348;DHT22;18821;44.800;10.326;2023-05-28T10:33:14;25.50;99.90
32348;DHT22;18821;44.800;10.326;2023-05-28T10:35:53;25.90;99.90
32348;DHT22;18821;44.800;10.326;2023-05-28T10:38:20;25.90;99.90
32348;DHT22;18821;44.800;10.326;2023-05-28T10:40:46;26.20;99.90
32348;DHT22;18821;44.800;10.326;2023-05-28T10:46:03;26.50;99.90
32348;DHT22;18821;44.800;10.326;2023-05-28T10:48:38;26.70;99.90
32348;DHT22;18821;44.800;10.326;2023-05-28T10:51:04;26.20;99.90
32348;DHT22;18821;44.800;10.326;2023-05-28T10:53:31;26.40;99.90
32348;DHT22;18821;44.800;10.326;2023-05-28T10:55:57;26.60;99.90
32348;DHT22;18821;44.800;10.326;2023-05-28T11:00:51;26.20;99.90
32348;DHT22;18821;44.800;10.326;2023-05-28T11:03:17;26.30;99.90
32348;DHT22;18821;44.800;10.326;2023-05-28T11:05:43;26.30;99.90
32348;DHT22;18821;44.800;10.326;2023-05-28T11:08:10;26.70;99.90
32348;DHT22;18821;44.800;10.326;2023-05-28T11:10:37;26.80;99.90
32348;DHT22;18821;44.800;10.326;2023-05-28T11:13:03;27.10;99.90
32348;DHT22;18821;44.800;10.326;2023-05-28T11:15:29;27.00;99.90
32348;DHT22;18821;44.800;10.326;2023-05-28T11:17:56;27.30;99.90
32348;DHT22;18821;44.800;10.326;2023-05-28T11:20:26;27.40;99.90
32348;DHT22;18821;44.800;10.326;2023-05-28T11:22:55;27.40;99.90
32348;DHT22;18821;44.800;10.326;2023-05-28T11:25:27;27.50;99.90
32348;DHT22;18821;44.800;10.326;2023-05-28T11:28:25;27.60;99.90
32348;DHT22;18821;44.800;10.326;2023-05-28T11:30:52;27.40;99.90
32348;DHT22;18821;44.800;10.326;2023-05-28T11:36:22;27.40;99.90
32348;DHT22;18821;44.800;10.326;2023-05-28T11:39:03;27.20;99.90
32348;DHT22;18821;44.800;10.326;2023-05-28T11:41:30;27.60;99.90
32348;DHT22;18821;44.800;10.326;2023-05-28T11:43:56;27.80;99.90
32348;DHT22;18821;44.800;10.326;2023-05-28T11:46:22;28.10;99.90
32348;DHT22;18821;44.800;10.326;2023-05-28T11:48:48;28.30;99.90
32348;DHT22;18821;44.800;10.326;2023-05-28T11:51:14;28.20;99.90
32348;DHT22;18821;44.800;10.326;2023-05-28T11:53:41;28.00;99.90
32348;DHT22;18821;44.800;10.326;2023-05-28T11:56:08;27.80;99.90
32348;DHT22;18821;44.800;10.326;2023-05-28T11:58:36;27.90;99.90
32348;DHT22;18821;44.800;10.326;2023-05-28T12:01:13;27.80;99.90
32348;DHT22;18821;44.800;10.326;2023-05-28T12:03:40;27.40;99.90
32348;DHT22;18821;44.800;10.326;2023-05-28T12:06:06;27.70;99.90
32348;DHT22;18821;44.800;10.326;2023-05-28T12:08:34;28.10;99.90
32348;DHT22;18821;44.800;10.326;2023-05-28T12:11:07;27.50;99.90
32348;DHT22;18821;44.800;10.326;2023-05-28T12:13:34;27.20;99.90
32348;DHT22;18821;44.800;10.326;2023-05-28T12:16:07;27.80;99.90
32348;DHT22;18821;44.800;10.326;2023-05-28T12:18:33;28.00;99.90
32348;DHT22;18821;44.800;10.326;2023-05-28T12:20:59;28.10;99.90
32348;DHT22;18821;44.800;10.326;2023-05-28T12:23:25;28.10;99.90
32348;DHT22;18821;44.800;10.326;2023-05-28T12:25:51;28.30;99.90
32348;DHT22;18821;44.800;10.326;2023-05-28T12:28:22;28.50;99.90
32348;DHT22;18821;44.800;10.326;2023-05-28T12:30:50;28.70;99.90
32348;DHT22;18821;44.800;10.326;2023-05-28T12:33:16;28.50;99.90
32348;DHT22;18821;44.800;10.326;2023-05-28T12:35:45;28.20;99.90
32348;DHT22;18821;44.800;10.326;2023-05-28T12:38:12;28.10;99.90
32348;DHT22;18821;44.800;10.326;2023-05-28T12:40:39;27.70;99.90
32348;DHT22;18821;44.800;10.326;2023-05-28T12:43:06;27.80;99.90
32348;DHT22;18821;44.800;10.326;2023-05-28T12:45:32;27.90;99.90
32348;DHT22;18821;44.800;10.326;2023-05-28T12:48:00;28.10;99.90
32348;DHT22;18821;44.800;10.326;2023-05-28T12:50:26;28.30;99.90
32348;DHT22;18821;44.800;10.326;2023-05-28T12:52:52;28.00;99.90
32348;DHT22;18821;44.800;10.326;2023-05-28T12:55:18;28.00;99.90
32348;DHT22;18821;44.800;10.326;2023-05-28T12:57:44;28.10;99.90
32348;DHT22;18821;44.800;10.326;2023-05-28T13:00:10;28.20;99.90
32348;DHT22;18821;44.800;10.326;2023-05-28T13:02:40;28.30;99.90
32348;DHT22;18821;44.800;10.326;2023-05-28T13:05:07;28.30;99.90
32348;DHT22;18821;44.800;10.326;2023-05-28T13:07:33;28.40;99.90
32348;DHT22;18821;44.800;10.326;2023-05-28T13:09:59;28.60;99.90
32348;DHT22;18821;44.800;10.326;2023-05-28T13:12:25;28.70;99.90
32348;DHT22;18821;44.800;10.326;2023-05-28T13:14:51;28.70;99.90
32348;DHT22;18821;44.800;10.326;2023-05-28T13:17:17;28.60;99.90
32348;DHT22;18821;44.800;10.326;2023-05-28T13:19:45;28.70;99.90
32348;DHT22;18821;44.800;10.326;2023-05-28T13:22:13;28.80;99.90
32348;DHT22;18821;44.800;10.326;2023-05-28T13:24:39;29.00;99.90
32348;DHT22;18821;44.800;10.326;2023-05-28T13:27:05;29.00;99.90
32348;DHT22;18821;44.800;10.326;2023-05-28T13:29:31;29.10;99.90
32348;DHT22;18821;44.800;10.326;2023-05-28T13:31:57;29.00;99.90
32348;DHT22;18821;44.800;10.326;2023-05-28T13:34:23;28.90;99.90
32348;DHT22;18821;44.800;10.326;2023-05-28T13:36:49;29.10;99.90
32348;DHT22;18821;44.800;10.326;2023-05-28T13:39:15;29.20;99.90
32348;DHT22;18821;44.800;10.326;2023-05-28T13:41:42;29.00;99.90
32348;DHT22;18821;44.800;10.326;2023-05-28T13:44:07;28.90;99.90
32348;DHT22;18821;44.800;10.326;2023-05-28T13:46:34;28.90;99.90
32348;DHT22;18821;44.800;10.326;2023-05-28T13:49:00;28.70;99.90
32348;DHT22;18821;44.800;10.326;2023-05-28T13:51:27;28.60;99.90
32348;DHT22;18821;44.800;10.326;2023-05-28T13:53:53;28.30;99.90
32348;DHT22;18821;44.800;10.326;2023-05-28T13:56:18;27.90;99.90
32348;DHT22;18821;44.800;10.326;2023-05-28T13:58:44;28.00;99.90
32348;DHT22;18821;44.800;10.326;2023-05-28T14:01:10;28.20;99.90
32348;DHT22;18821;44.800;10.326;2023-05-28T14:03:36;28.00;99.90
32348;DHT22;18821;44.800;10.326;2023-05-28T14:06:03;27.90;99.90
32348;DHT22;18821;44.800;10.326;2023-05-28T14:08:29;27.90;99.90
32348;DHT22;18821;44.800;10.326;2023-05-28T14:10:55;27.70;99.90
32348;DHT22;18821;44.800;10.326;2023-05-28T14:13:21;27.80;99.90
32348;DHT22;18821;44.800;10.326;2023-05-28T14:15:47;27.90;99.90
32348;DHT22;18821;44.800;10.326;2023-05-28T14:18:13;27.80;99.90
32348;DHT22;18821;44.800;10.326;2023-05-28T14:20:39;27.90;99.90
32348;DHT22;18821;44.800;10.326;2023-05-28T14:23:05;27.90;99.90
32348;DHT22;18821;44.800;10.326;2023-05-28T14:25:31;28.10;99.90
32348;DHT22;18821;44.800;10.326;2023-05-28T14:27:57;28.30;99.90
32348;DHT22;18821;44.800;10.326;2023-05-28T14:30:24;28.30;99.90
32348;DHT22;18821;44.800;10.326;2023-05-28T14:32:53;28.30;99.90
32348;DHT22;18821;44.800;10.326;2023-05-28T14:35:20;28.00;99.90
32348;DHT22;18821;44.800;10.326;2023-05-28T14:37:46;28.10;99.90
32348;DHT22;18821;44.800;10.326;2023-05-28T14:40:15;28.30;99.90
32348;DHT22;18821;44.800;10.326;2023-05-28T14:42:41;28.20;99.90
32348;DHT22;18821;44.800;10.326;2023-05-28T14:45:07;28.40;99.90
32348;DHT22;18821;44.800;10.326;2023-05-28T14:47:33;28.50;99.90
32348;DHT22;18821;44.800;10.326;2023-05-28T14:49:59;28.50;99.90
32348;DHT22;18821;44.800;10.326;2023-05-28T14:52:29;28.40;99.90
32348;DHT22;18821;44.800;10.326;2023-05-28T14:54:59;28.10;99.90
32348;DHT22;18821;44.800;10.326;2023-05-28T14:57:26;27.90;99.90
32348;DHT22;18821;44.800;10.326;2023-05-28T14:59:57;27.80;99.90
32348;DHT22;18821;44.800;10.326;2023-05-28T15:02:23;27.80;99.90
32348;DHT22;18821;44.800;10.326;2023-05-28T15:04:49;28.00;99.90
32348;DHT22;18821;44.800;10.326;2023-05-28T15:07:15;28.00;99.90
32348;DHT22;18821;44.800;10.326;2023-05-28T15:09:43;27.90;99.90
32348;DHT22;18821;44.800;10.326;2023-05-28T15:12:08;27.90;99.90
32348;DHT22;18821;44.800;10.326;2023-05-28T15:14:36;27.80;99.90
32348;DHT22;18821;44.800;10.326;2023-05-28T15:17:03;27.80;99.90
32348;DHT22;18821;44.800;10.326;2023-05-28T15:19:29;27.70;99.90
32348;DHT22;18821;44.800;10.326;2023-05-28T15:21:55;27.70;99.90
32348;DHT22;18821;44.800;10.326;2023-05-28T15:24:21;27.70;99.90
32348;DHT22;18821;44.800;10.326;2023-05-28T15:26:47;27.60;99.90
32348;DHT22;18821;44.800;10.326;2023-05-28T15:29:14;27.70;99.90
32348;DHT22;18821;44.800;10.326;2023-05-28T15:31:46;27.80;99.90
32348;DHT22;18821;44.800;10.326;2023-05-28T15:34:13;27.80;99.90
32348;DHT22;18821;44.800;10.326;2023-05-28T15:36:40;27.90;99.90
32348;DHT22;18821;44.800;10.326;2023-05-28T15:39:06;27.90;99.90
32348;DHT22;18821;44.800;10.326;2023-05-28T15:41:36;27.90;99.90
32348;DHT22;18821;44.800;10.326;2023-05-28T15:44:05;27.80;99.90
32348;DHT22;18821;44.800;10.326;2023-05-28T15:46:31;27.90;99.90